Time;durP1;ratioP1;P1;durP2;ratioP2;P2;SDS_P1;SDS_P2;PMS_P1;PMS_P2;Temp;Humidity;BMP_temperature;BMP_pressure;BME280_temperature;BME280_humidity;BME280_pressure;Samples;Min_cycle;Max_cycle;Signal;HPM_P1;HPM_P2
2021/09/23 00:02:14;;;;;;;18.50;9.67;;;10.70;97.30;;;;;;5050222;28;20634;-77
2021/09/23 00:04:41;;;;;;;12.60;8.30;;;10.70;97.30;;;;;;5049081;28;20206;-77
2021/09/23 00:07:07;;;;;;;18.43;9.37;;;10.70;97.30;;;;;;5049937;28;20426;-78
2021/09/23 00:09:32;;;;;;;21.37;8.90;;;10.70;97.30;;;;;;5049047;28;20935;-77
2021/09/23 00:11:58;;;;;;;17.00;9.40;;;10.70;97.30;;;;;;5049576;28;20175;-77
2021/09/23 00:14:24;;;;;;;18.63;9.70;;;10.60;97.30;;;;;;5048828;28;20282;-77
2021/09/23 00:16:50;;;;;;;16.50;9.87;;;10.60;97.30;;;;;;5049017;28;20830;-77
2021/09/23 00:19:17;;;;;;;14.80;9.47;;;10.50;97.30;;;;;;5048999;28;20494;-77
2021/09/23 00:21:43;;;;;;;18.13;9.60;;;10.40;97.30;;;;;;5062953;28;20474;-77
2021/09/23 00:24:10;;;;;;;16.70;8.80;;;10.40;97.30;;;;;;5070337;28;20829;-77
2021/09/23 00:26:35;;;;;;;20.83;10.33;;;10.40;97.30;;;;;;5068298;28;20475;-77
2021/09/23 00:29:03;;;;;;;17.80;9.60;;;10.30;97.30;;;;;;5070147;28;20441;-77
2021/09/23 00:31:30;;;;;;;21.43;10.00;;;10.30;97.30;;;;;;5069501;28;20209;-77
2021/09/23 00:33:55;;;;;;;21.00;9.13;;;10.20;97.30;;;;;;5067759;28;20429;-77
2021/09/23 00:36:21;;;;;;;13.60;9.17;;;10.20;97.30;;;;;;5068293;28;20513;-77
2021/09/23 00:38:46;;;;;;;19.13;10.00;;;10.20;97.30;;;;;;5068784;28;20171;-77
2021/09/23 00:41:12;;;;;;;14.57;9.10;;;10.20;97.30;;;;;;5068800;28;20171;-77
2021/09/23 00:43:37;;;;;;;13.70;9.17;;;10.20;97.30;;;;;;5066926;28;20569;-77
2021/09/23 00:46:03;;;;;;;16.90;8.90;;;10.20;97.30;;;;;;5068744;28;20171;-77
2021/09/23 00:48:29;;;;;;;15.27;8.37;;;10.20;97.30;;;;;;5067096;28;20299;-77
2021/09/23 00:50:57;;;;;;;17.63;8.70;;;10.20;97.30;;;;;;5071873;28;20199;-77
2021/09/23 00:53:23;;;;;;;16.97;8.60;;;10.10;97.30;;;;;;5071474;28;20196;-76
2021/09/23 00:55:49;;;;;;;15.93;8.63;;;10.10;97.30;;;;;;5073491;28;20485;-77
2021/09/23 00:58:15;;;;;;;18.30;8.60;;;10.10;97.30;;;;;;5071171;28;20667;-77
2021/09/23 01:00:41;;;;;;;16.43;8.80;;;10.10;97.30;;;;;;5072092;28;20454;-77
2021/09/23 01:03:07;;;;;;;15.57;8.00;;;10.10;97.30;;;;;;5072177;28;20203;-77
2021/09/23 01:05:32;;;;;;;20.50;8.50;;;10.00;97.30;;;;;;5073355;28;20183;-77
2021/09/23 01:07:58;;;;;;;14.60;8.80;;;10.00;97.30;;;;;;5072253;28;20175;-77
2021/09/23 01:10:23;;;;;;;16.00;8.40;;;10.00;97.30;;;;;;5073521;28;20229;-77
2021/09/23 01:12:49;;;;;;;16.70;9.20;;;10.00;97.30;;;;;;5072113;28;20247;-77
2021/09/23 01:15:17;;;;;;;14.40;7.70;;;9.90;97.30;;;;;;5071739;28;20553;-77
2021/09/23 01:17:43;;;;;;;22.17;9.07;;;9.90;97.30;;;;;;5071958;28;20182;-77
2021/09/23 01:20:10;;;;;;;15.63;8.07;;;9.90;97.30;;;;;;5071987;28;20410;-77
2021/09/23 01:22:35;;;;;;;14.30;8.40;;;9.90;97.30;;;;;;5071534;28;20207;-77
2021/09/23 01:25:05;;;;;;;12.80;8.50;;;9.90;97.30;;;;;;5071488;28;20934;-77
2021/09/23 01:27:32;;;;;;;14.37;9.13;;;9.90;97.30;;;;;;5071503;28;20175;-76
2021/09/23 01:29:58;;;;;;;19.97;8.30;;;9.90;97.30;;;;;;5071725;28;20497;-77
2021/09/23 01:32:23;;;;;;;15.03;8.10;;;9.90;97.30;;;;;;5072804;28;20964;-76
2021/09/23 01:34:49;;;;;;;14.57;8.77;;;9.80;97.30;;;;;;5071675;28;20178;-77
2021/09/23 01:37:15;;;;;;;14.23;8.30;;;9.80;97.30;;;;;;5073169;28;20183;-77
2021/09/23 01:39:40;;;;;;;13.70;8.63;;;9.80;97.30;;;;;;5073074;28;20232;-77
2021/09/23 01:42:06;;;;;;;17.03;9.00;;;9.80;97.30;;;;;;5072747;28;20429;-77
2021/09/23 01:44:32;;;;;;;17.73;9.50;;;9.80;97.30;;;;;;5071103;28;20260;-76
2021/09/23 01:46:58;;;;;;;17.10;8.60;;;9.90;97.30;;;;;;5071853;28;20278;-78
2021/09/23 01:49:23;;;;;;;15.40;8.23;;;9.80;97.30;;;;;;5072508;28;20869;-77
2021/09/23 01:51:49;;;;;;;21.07;10.57;;;9.70;97.30;;;;;;5071255;28;20237;-77
2021/09/23 01:54:16;;;;;;;23.17;10.20;;;9.70;97.30;;;;;;5071202;28;20202;-77
2021/09/23 01:56:41;;;;;;;20.70;10.17;;;9.70;97.30;;;;;;5071274;28;20179;-76
2021/09/23 01:59:07;;;;;;;15.23;9.13;;;9.80;97.30;;;;;;5071131;28;20424;-77
2021/09/23 02:01:33;;;;;;;25.73;9.67;;;9.80;97.30;;;;;;5070132;28;20270;-77
2021/09/23 02:03:59;;;;;;;23.20;10.67;;;9.80;97.30;;;;;;5071065;28;20672;-77
2021/09/23 02:06:25;;;;;;;19.63;10.20;;;9.90;97.30;;;;;;5072652;28;20171;-78
2021/09/23 02:08:51;;;;;;;30.17;12.33;;;9.90;97.30;;;;;;5067706;28;20487;-77
2021/09/23 02:11:16;;;;;;;21.03;10.93;;;10.00;97.30;;;;;;5070909;28;20445;-77
2021/09/23 02:13:43;;;;;;;23.20;10.97;;;10.00;97.30;;;;;;5070790;28;20569;-77
2021/09/23 02:16:08;;;;;;;19.43;10.03;;;10.10;97.30;;;;;;5070693;28;20641;-77
2021/09/23 02:18:34;;;;;;;22.43;10.67;;;10.10;97.30;;;;;;5071663;28;20406;-77
2021/09/23 02:21:00;;;;;;;24.20;11.93;;;10.10;97.30;;;;;;5071126;28;20180;-78
2021/09/23 02:23:25;;;;;;;21.40;11.23;;;10.20;97.30;;;;;;5072235;28;20561;-77
2021/09/23 02:25:51;;;;;;;24.50;11.90;;;10.20;97.30;;;;;;5072165;28;20183;-78
2021/09/23 02:28:17;;;;;;;20.53;11.40;;;10.20;97.30;;;;;;5072028;28;20317;-77
2021/09/23 02:30:43;;;;;;;25.80;11.83;;;10.20;97.30;;;;;;5071978;28;20552;-77
2021/09/23 02:33:08;;;;;;;22.33;11.53;;;10.30;97.30;;;;;;5070876;28;20290;-77
2021/09/23 02:35:34;;;;;;;25.20;11.40;;;10.20;97.30;;;;;;5071056;28;20167;-76
2021/09/23 02:38:00;;;;;;;22.40;10.80;;;10.20;97.30;;;;;;5070372;28;20185;-78
2021/09/23 02:40:25;;;;;;;22.87;11.67;;;10.20;97.30;;;;;;5071736;28;20211;-78
2021/09/23 02:42:51;;;;;;;19.87;10.43;;;10.20;97.30;;;;;;5070596;28;20210;-77
2021/09/23 02:45:17;;;;;;;26.07;11.80;;;10.30;97.30;;;;;;5070847;28;20563;-77
2021/09/23 02:47:43;;;;;;;22.73;11.30;;;10.30;97.30;;;;;;5070266;28;20190;-77
2021/09/23 02:50:09;;;;;;;21.23;11.57;;;10.30;97.30;;;;;;5070049;28;20202;-78
2021/09/23 02:52:35;;;;;;;22.23;10.50;;;10.40;97.30;;;;;;5071240;28;20517;-78
2021/09/23 02:55:01;;;;;;;19.23;10.47;;;10.30;97.30;;;;;;5071074;28;20979;-77
2021/09/23 02:57:27;;;;;;;21.73;9.87;;;10.30;97.30;;;;;;5069913;28;20422;-77
2021/09/23 02:59:52;;;;;;;15.47;9.20;;;10.20;97.30;;;;;;5071342;28;20175;-76
2021/09/23 03:02:18;;;;;;;21.17;9.90;;;10.10;97.30;;;;;;5069795;28;20553;-76
2021/09/23 03:04:43;;;;;;;21.10;9.90;;;10.10;97.30;;;;;;5071247;28;20217;-78
2021/09/23 03:07:09;;;;;;;19.43;10.10;;;10.10;97.30;;;;;;5069882;28;20266;-77
2021/09/23 03:09:35;;;;;;;29.60;10.47;;;10.20;97.30;;;;;;5071032;28;20723;-77
2021/09/23 03:12:00;;;;;;;17.13;9.77;;;10.20;97.30;;;;;;5069939;28;20202;-78
2021/09/23 03:14:26;;;;;;;15.10;8.50;;;10.20;97.30;;;;;;5068893;28;20959;-77
2021/09/23 03:16:52;;;;;;;18.57;9.27;;;10.20;97.30;;;;;;5069696;28;20174;-78
2021/09/23 03:19:18;;;;;;;19.77;9.13;;;10.20;97.30;;;;;;5069585;28;20688;-78
2021/09/23 03:21:43;;;;;;;16.80;9.57;;;10.10;97.30;;;;;;5069851;28;20179;-77
2021/09/23 03:24:10;;;;;;;27.43;11.97;;;10.20;97.30;;;;;;5069387;28;20220;-78
2021/09/23 03:26:36;;;;;;;23.13;10.13;;;10.10;97.30;;;;;;5069613;28;20174;-78
2021/09/23 03:29:02;;;;;;;21.70;10.13;;;10.20;97.30;;;;;;5069713;28;21017;-78
2021/09/23 03:31:28;;;;;;;21.50;10.23;;;10.20;97.30;;;;;;5069554;28;20457;-77
2021/09/23 03:33:53;;;;;;;19.20;9.97;;;10.20;97.30;;;;;;5069133;28;20433;-78
2021/09/23 03:36:19;;;;;;;19.50;10.00;;;10.20;97.30;;;;;;5069896;28;20186;-78
2021/09/23 03:38:45;;;;;;;19.50;9.50;;;10.20;97.30;;;;;;5070691;28;20171;-77
2021/09/23 03:41:10;;;;;;;25.37;10.23;;;10.10;97.30;;;;;;5069231;28;20252;-77
2021/09/23 03:43:36;;;;;;;21.03;11.70;;;10.10;97.30;;;;;;5069175;28;20198;-77
2021/09/23 03:46:04;;;;;;;24.33;9.83;;;10.10;97.30;;;;;;5071413;28;20163;-77
2021/09/23 03:48:32;;;;;;;20.67;10.13;;;10.10;97.30;;;;;;5070646;28;20166;-78
2021/09/23 03:50:58;;;;;;;21.60;10.80;;;10.10;97.30;;;;;;5069026;28;21020;-77
2021/09/23 03:53:24;;;;;;;19.90;9.10;;;10.10;97.30;;;;;;5070515;28;20430;-77
2021/09/23 03:55:50;;;;;;;20.30;9.80;;;10.00;97.30;;;;;;5069247;28;20420;-77
2021/09/23 03:58:16;;;;;;;22.13;10.03;;;10.00;97.30;;;;;;5070685;28;20787;-77
2021/09/23 04:00:44;;;;;;;17.57;9.00;;;10.00;97.30;;;;;;5070257;28;20409;-77
2021/09/23 04:03:10;;;;;;;22.57;9.47;;;10.00;97.30;;;;;;5068878;28;20290;-77
2021/09/23 04:05:35;;;;;;;19.63;10.00;;;10.00;97.30;;;;;;5068734;28;20962;-77
2021/09/23 04:08:02;;;;;;;21.87;8.90;;;10.00;97.30;;;;;;5068572;28;20182;-77
2021/09/23 04:10:28;;;;;;;15.70;8.90;;;10.00;97.30;;;;;;5068668;28;20286;-77
2021/09/23 04:12:55;;;;;;;18.63;8.93;;;10.00;97.30;;;;;;5068782;28;20571;-77
2021/09/23 04:15:22;;;;;;;24.23;8.97;;;10.00;97.30;;;;;;5070304;28;20425;-78
2021/09/23 04:17:48;;;;;;;19.70;9.13;;;10.00;97.30;;;;;;5057452;28;20475;-77
2021/09/23 04:20:14;;;;;;;17.60;8.00;;;9.90;97.30;;;;;;5058442;28;20956;-77
2021/09/23 04:22:40;;;;;;;20.53;8.90;;;9.90;97.30;;;;;;5061767;28;20459;-77
2021/09/23 04:25:06;;;;;;;17.60;9.03;;;9.90;97.30;;;;;;5065437;28;20413;-77
2021/09/23 04:27:32;;;;;;;20.13;9.43;;;9.90;97.30;;;;;;5067157;28;20185;-77
2021/09/23 04:29:57;;;;;;;22.60;10.13;;;9.90;97.30;;;;;;5058052;28;20203;-78
2021/09/23 04:32:23;;;;;;;17.93;9.23;;;9.90;97.30;;;;;;5064674;28;20172;-77
2021/09/23 04:34:48;;;;;;;17.97;9.83;;;9.90;97.30;;;;;;5067160;28;20324;-77
2021/09/23 04:37:16;;;;;;;18.73;8.27;;;9.80;97.30;;;;;;5067654;28;20180;-77
2021/09/23 04:39:42;;;;;;;16.90;8.40;;;9.80;97.30;;;;;;5063801;28;20168;-77
2021/09/23 04:42:07;;;;;;;20.77;9.40;;;9.70;97.30;;;;;;5067902;28;20816;-78
2021/09/23 04:44:33;;;;;;;16.30;8.63;;;9.70;97.30;;;;;;5065285;28;20226;-75
2021/09/23 04:47:02;;;;;;;23.90;9.57;;;9.70;97.30;;;;;;5062720;28;20174;-76
2021/09/23 04:49:28;;;;;;;20.83;9.30;;;9.70;97.30;;;;;;5059510;28;20898;-77
2021/09/23 04:51:54;;;;;;;17.77;10.37;;;9.80;97.30;;;;;;5063829;28;20507;-77
2021/09/23 04:54:20;;;;;;;19.80;9.37;;;9.80;97.30;;;;;;5067095;28;20446;-76
2021/09/23 04:56:45;;;;;;;15.60;8.53;;;9.80;97.30;;;;;;5064291;28;20586;-76
2021/09/23 04:59:11;;;;;;;17.83;8.43;;;9.70;97.30;;;;;;5063073;28;20209;-77
2021/09/23 05:01:37;;;;;;;21.63;10.53;;;9.70;97.30;;;;;;5064397;28;20423;-76
2021/09/23 05:04:02;;;;;;;17.70;9.07;;;9.70;97.30;;;;;;5065153;28;20198;-77
2021/09/23 05:06:28;;;;;;;19.73;9.33;;;9.70;97.30;;;;;;5063521;28;20183;-78
2021/09/23 05:08:53;;;;;;;17.20;9.60;;;9.80;97.30;;;;;;5063016;28;20266;-77
2021/09/23 05:11:19;;;;;;;19.80;9.20;;;9.80;97.30;;;;;;5061264;28;20200;-78
2021/09/23 05:13:45;;;;;;;24.17;9.63;;;9.80;97.30;;;;;;5068171;28;20256;-77
2021/09/23 05:16:11;;;;;;;26.30;9.73;;;9.90;97.30;;;;;;5064848;28;20172;-77
2021/09/23 05:18:37;;;;;;;22.90;10.87;;;9.90;97.30;;;;;;5066432;28;20405;-77
2021/09/23 05:21:03;;;;;;;22.63;9.00;;;9.90;97.30;;;;;;5063518;28;20176;-78
2021/09/23 05:23:28;;;;;;;23.33;10.07;;;10.00;97.30;;;;;;5063529;28;20233;-77
2021/09/23 05:25:54;;;;;;;20.60;10.00;;;10.00;97.30;;;;;;5059190;28;20206;-77
2021/09/23 05:28:21;;;;;;;23.97;9.90;;;10.00;97.30;;;;;;5059991;28;20190;-77
2021/09/23 05:30:47;;;;;;;17.77;9.40;;;10.00;97.30;;;;;;5061565;28;20433;-77
2021/09/23 05:33:13;;;;;;;19.53;9.57;;;9.90;97.30;;;;;;5066063;28;20445;-78
2021/09/23 05:35:38;;;;;;;18.93;9.20;;;9.90;97.30;;;;;;5063101;28;20179;-77
2021/09/23 05:38:04;;;;;;;21.37;10.00;;;10.00;97.30;;;;;;5062322;28;20160;-77
2021/09/23 05:40:30;;;;;;;18.87;8.20;;;10.00;97.30;;;;;;5060176;28;20171;-77
2021/09/23 05:42:56;;;;;;;22.53;10.10;;;10.00;97.30;;;;;;5059793;28;20569;-78
2021/09/23 05:45:22;;;;;;;24.50;9.70;;;10.00;97.30;;;;;;5060944;28;20456;-77
2021/09/23 05:47:48;;;;;;;23.97;9.90;;;10.10;97.30;;;;;;5071340;28;20187;-79
2021/09/23 05:50:14;;;;;;;21.33;9.80;;;10.10;97.30;;;;;;5051084;28;20196;-78
2021/09/23 05:52:40;;;;;;;22.13;10.10;;;10.20;97.30;;;;;;5051494;28;20514;-79
2021/09/23 05:55:07;;;;;;;22.10;10.63;;;10.30;97.30;;;;;;5054173;28;20804;-78
2021/09/23 05:57:34;;;;;;;23.57;10.80;;;10.40;97.30;;;;;;5054391;28;20414;-78
2021/09/23 06:00:06;;;;;;;21.63;10.80;;;10.40;97.30;;;;;;5051466;28;20419;-78
2021/09/23 06:02:32;;;;;;;25.23;10.70;;;10.50;97.30;;;;;;5051026;28;20415;-78
2021/09/23 06:04:57;;;;;;;23.40;9.97;;;10.50;97.30;;;;;;5051406;28;20853;-78
2021/09/23 06:07:23;;;;;;;18.30;9.30;;;10.60;97.30;;;;;;5051917;28;20850;-79
2021/09/23 06:09:49;;;;;;;22.93;11.60;;;10.70;97.30;;;;;;5050602;28;20179;-78
2021/09/23 06:12:14;;;;;;;24.53;11.70;;;10.70;97.30;;;;;;5051098;28;20172;-78
2021/09/23 06:14:40;;;;;;;25.57;10.40;;;10.80;97.30;;;;;;5051084;28;20543;-78
2021/09/23 06:17:05;;;;;;;21.43;10.57;;;10.90;97.30;;;;;;5050955;28;20230;-79
2021/09/23 06:19:31;;;;;;;18.13;10.23;;;10.90;97.30;;;;;;5052476;28;20658;-79
2021/09/23 06:21:57;;;;;;;24.10;10.63;;;11.00;97.30;;;;;;5051060;28;20187;-78
2021/09/23 06:24:23;;;;;;;25.40;10.87;;;11.10;97.30;;;;;;5061344;28;20207;-79
2021/09/23 06:26:49;;;;;;;21.70;10.63;;;11.20;97.30;;;;;;5070972;28;20799;-78
2021/09/23 06:29:14;;;;;;;20.23;9.60;;;11.30;97.30;;;;;;5072440;28;20175;-78
2021/09/23 06:31:40;;;;;;;25.83;10.73;;;11.40;97.30;;;;;;5070322;28;20206;-78
2021/09/23 06:34:05;;;;;;;22.83;10.30;;;11.50;97.30;;;;;;5071534;28;20203;-79
2021/09/23 06:36:33;;;;;;;21.30;10.00;;;11.60;97.30;;;;;;5071166;28;20580;-79
2021/09/23 06:38:59;;;;;;;24.90;10.50;;;11.70;97.30;;;;;;5071236;28;20220;-79
2021/09/23 06:41:25;;;;;;;16.57;8.33;;;11.80;97.30;;;;;;5071487;28;20547;-79
2021/09/23 06:43:51;;;;;;;17.07;9.50;;;11.80;97.30;;;;;;5071018;28;20473;-78
2021/09/23 06:46:20;;;;;;;19.13;9.57;;;11.90;97.30;;;;;;5069867;28;20179;-79
2021/09/23 06:48:45;;;;;;;16.73;8.73;;;12.00;97.30;;;;;;5072056;28;20563;-78
2021/09/23 06:51:11;;;;;;;20.83;9.87;;;12.20;97.30;;;;;;5070945;28;20544;-79
2021/09/23 06:53:37;;;;;;;16.83;8.10;;;12.30;97.30;;;;;;5071533;28;20226;-78
2021/09/23 06:56:03;;;;;;;18.20;9.17;;;12.30;97.30;;;;;;5070968;28;20417;-79
2021/09/23 06:58:29;;;;;;;18.13;8.90;;;12.50;97.30;;;;;;5071519;28;20273;-79
2021/09/23 07:00:54;;;;;;;20.13;8.60;;;12.50;97.30;;;;;;5070923;28;20182;-78
2021/09/23 07:03:20;;;;;;;13.80;8.00;;;12.60;97.30;;;;;;5071699;28;20732;-78
2021/09/23 07:05:45;;;;;;;27.43;8.70;;;12.70;97.30;;;;;;5071881;28;20179;-78
2021/09/23 07:08:14;;;;;;;16.17;8.53;;;12.70;97.30;;;;;;5070478;28;20183;-79
2021/09/23 07:10:39;;;;;;;18.30;9.57;;;12.80;97.30;;;;;;5070743;28;20203;-79
2021/09/23 07:13:05;;;;;;;18.10;8.50;;;12.90;97.30;;;;;;5071727;28;20440;-79
2021/09/23 07:15:31;;;;;;;19.80;8.20;;;13.00;97.30;;;;;;5071298;28;20209;-79
2021/09/23 07:17:57;;;;;;;23.30;8.80;;;13.10;97.30;;;;;;5069384;28;20240;-79
2021/09/23 07:20:22;;;;;;;20.60;8.30;;;13.20;97.30;;;;;;5070002;28;20190;-79
2021/09/23 07:22:48;;;;;;;11.70;7.10;;;13.40;97.30;;;;;;5070432;28;20453;-79
2021/09/23 07:25:13;;;;;;;14.63;7.17;;;13.50;97.30;;;;;;5070820;28;20212;-79
2021/09/23 07:27:39;;;;;;;15.03;8.63;;;13.50;97.30;;;;;;5070932;28;20187;-79
2021/09/23 07:30:05;;;;;;;14.50;7.93;;;13.70;97.30;;;;;;5070850;28;20796;-79
2021/09/23 07:32:31;;;;;;;14.80;7.03;;;13.80;97.30;;;;;;5069572;28;20231;-79
2021/09/23 07:34:57;;;;;;;16.57;7.80;;;13.80;97.30;;;;;;5059838;28;20430;-79
2021/09/23 07:37:23;;;;;;;13.17;7.87;;;13.90;97.30;;;;;;5059293;28;20416;-79
2021/09/23 07:39:49;;;;;;;17.73;7.77;;;14.00;97.30;;;;;;5059098;28;20596;-78
2021/09/23 07:42:16;;;;;;;11.90;6.33;;;14.00;97.30;;;;;;5059481;28;20622;-79
2021/09/23 07:44:43;;;;;;;13.67;6.57;;;14.10;97.30;;;;;;5058802;28;20219;-78
2021/09/23 07:47:09;;;;;;;18.13;7.70;;;14.20;97.30;;;;;;5061368;28;20421;-79
2021/09/23 07:49:34;;;;;;;15.33;6.80;;;14.20;97.30;;;;;;5060077;28;20468;-77
2021/09/23 07:52:00;;;;;;;15.20;7.53;;;14.40;97.30;;;;;;5063908;28;20456;-79
2021/09/23 07:54:26;;;;;;;13.70;7.17;;;14.50;97.30;;;;;;5050784;28;20229;-80
2021/09/23 07:56:52;;;;;;;18.20;6.60;;;14.70;97.30;;;;;;5049160;28;20237;-78
2021/09/23 07:59:17;;;;;;;9.60;6.90;;;14.90;97.30;;;;;;5050913;28;20172;-78
2021/09/23 08:01:43;;;;;;;17.00;7.37;;;15.10;97.30;;;;;;5049878;28;20426;-78
2021/09/23 08:04:09;;;;;;;12.47;7.70;;;15.20;97.30;;;;;;5049391;28;20203;-79
2021/09/23 08:06:34;;;;;;;13.53;7.00;;;15.20;97.30;;;;;;5049479;28;20649;-79
2021/09/23 08:09:00;;;;;;;13.97;6.67;;;15.30;97.30;;;;;;5049754;28;20649;-79
2021/09/23 08:11:26;;;;;;;11.37;6.17;;;15.40;97.30;;;;;;5050269;28;20211;-79
2021/09/23 08:13:51;;;;;;;11.87;6.30;;;15.40;97.30;;;;;;5050728;28;20191;-79
2021/09/23 08:16:17;;;;;;;11.90;6.33;;;15.50;97.30;;;;;;5053751;28;20259;-78
2021/09/23 08:18:42;;;;;;;12.20;7.00;;;15.50;97.30;;;;;;5054493;28;20172;-79
2021/09/23 08:21:08;;;;;;;12.53;6.77;;;15.60;97.30;;;;;;5053294;28;20729;-80
2021/09/23 08:23:34;;;;;;;13.03;6.60;;;15.60;97.30;;;;;;5052929;28;20200;-79
2021/09/23 08:26:00;;;;;;;11.60;6.50;;;15.60;97.30;;;;;;5054752;28;20220;-78
2021/09/23 08:28:29;;;;;;;10.80;5.90;;;15.60;97.30;;;;;;5052638;28;20899;-78
2021/09/23 08:30:56;;;;;;;12.53;7.13;;;15.60;97.30;;;;;;5053233;28;20207;-79
2021/09/23 08:33:22;;;;;;;10.40;5.43;;;15.70;97.30;;;;;;5054880;28;20803;-78
2021/09/23 08:35:48;;;;;;;12.67;6.57;;;15.80;97.30;;;;;;5072517;28;20417;-79
2021/09/23 08:38:19;;;;;;;11.80;6.30;;;15.90;97.30;;;;;;5073641;28;20417;-78
2021/09/23 08:40:47;;;;;;;12.67;5.80;;;15.90;97.30;;;;;;5071479;28;20175;-77
2021/09/23 08:43:13;;;;;;;14.07;6.20;;;16.00;97.30;;;;;;5072285;28;20445;-79
2021/09/23 08:45:39;;;;;;;10.17;6.10;;;16.10;97.30;;;;;;5071933;28;21281;-79
2021/09/23 08:48:06;;;;;;;10.27;6.07;;;16.20;97.30;;;;;;5072873;28;20519;-79
2021/09/23 08:50:31;;;;;;;16.63;6.07;;;16.20;97.30;;;;;;5072370;28;20207;-79
2021/09/23 08:52:59;;;;;;;10.93;5.40;;;16.20;97.30;;;;;;5072213;28;20429;-80
2021/09/23 08:55:29;;;;;;;12.33;5.23;;;16.30;97.30;;;;;;5072969;28;20262;-83
2021/09/23 08:57:56;;;;;;;11.67;6.33;;;16.40;97.30;;;;;;5072698;28;20414;-81
2021/09/23 09:00:22;;;;;;;10.53;5.80;;;16.50;97.30;;;;;;5072390;28;20479;-80
2021/09/23 09:03:03;;;;;;;12.40;5.33;;;16.60;97.30;;;;;;5072760;28;20441;-81
2021/09/23 09:05:29;;;;;;;12.23;6.23;;;16.80;97.30;;;;;;5071871;28;20175;-81
2021/09/23 09:08:10;;;;;;;11.00;6.00;;;16.90;97.30;;;;;;5072341;28;20871;-79
2021/09/23 09:10:37;;;;;;;10.20;5.70;;;17.00;97.30;;;;;;5073152;28;20473;-81
2021/09/23 09:13:05;;;;;;;8.60;5.17;;;17.00;97.30;;;;;;5075546;28;20437;-83
2021/09/23 09:15:37;;;;;;;9.83;6.00;;;17.00;97.30;;;;;;5075637;28;20421;-80
2021/09/23 09:18:17;;;;;;;8.20;4.87;;;17.10;97.30;;;;;;5076173;28;20474;-78
2021/09/23 09:20:53;;;;;;;10.67;5.13;;;17.20;97.30;;;;;;5075215;28;20413;-78
2021/09/23 09:23:19;;;;;;;8.03;4.67;;;17.40;97.30;;;;;;5075094;28;20437;-81
2021/09/23 09:25:44;;;;;;;7.67;4.97;;;17.50;97.30;;;;;;5074659;28;20429;-79
2021/09/23 09:28:10;;;;;;;8.70;4.87;;;17.70;96.40;;;;;;5075119;28;20417;-79
2021/09/23 09:30:36;;;;;;;8.43;5.00;;;17.80;96.10;;;;;;5075796;28;20274;-79
2021/09/23 09:33:04;;;;;;;10.73;4.37;;;17.90;96.20;;;;;;5075544;28;20676;-79
2021/09/23 09:35:34;;;;;;;11.50;4.27;;;18.00;96.40;;;;;;5075103;28;20497;-80
2021/09/23 09:38:02;;;;;;;10.93;4.67;;;18.10;95.10;;;;;;5075503;28;20417;-78
2021/09/23 09:40:32;;;;;;;10.17;5.50;;;18.10;95.00;;;;;;5074540;28;20413;-83
2021/09/23 09:43:05;;;;;;;9.07;4.90;;;18.10;94.20;;;;;;5057326;28;20446;-85
2021/09/23 09:45:32;;;;;;;15.47;4.20;;;18.20;94.90;;;;;;5056049;28;20759;-80
2021/09/23 09:47:58;;;;;;;6.87;4.17;;;18.30;93.70;;;;;;5055330;28;20415;-78
2021/09/23 09:50:32;;;;;;;6.37;4.03;;;18.30;92.20;;;;;;5076548;28;20456;-79
2021/09/23 09:53:01;;;;;;;7.17;4.50;;;18.50;93.50;;;;;;5074910;28;20474;-80
2021/09/23 09:55:42;;;;;;;7.17;4.03;;;18.60;92.40;;;;;;5075864;28;20902;-84
2021/09/23 09:58:09;;;;;;;8.37;4.13;;;18.80;91.70;;;;;;5075089;28;20520;-78
2021/09/23 10:00:36;;;;;;;5.27;3.77;;;18.90;91.50;;;;;;5075758;28;20950;-79
2021/09/23 10:03:03;;;;;;;5.27;3.97;;;18.90;91.60;;;;;;5076463;28;20429;-82
2021/09/23 10:05:29;;;;;;;7.17;4.43;;;19.10;92.20;;;;;;5074252;28;20737;-81
2021/09/23 10:07:56;;;;;;;6.93;4.10;;;19.20;90.40;;;;;;5074490;28;20421;-82
2021/09/23 10:10:31;;;;;;;7.30;3.87;;;19.20;90.80;;;;;;5075196;28;20465;-80
2021/09/23 10:13:00;;;;;;;5.70;3.67;;;19.20;90.70;;;;;;5073786;28;20981;-80
2021/09/23 10:15:26;;;;;;;6.20;3.80;;;19.20;89.40;;;;;;5075090;28;20413;-81
2021/09/23 10:18:00;;;;;;;6.50;4.00;;;19.00;89.90;;;;;;5075127;28;20461;-80
2021/09/23 10:20:26;;;;;;;6.27;3.33;;;19.00;90.00;;;;;;5074469;28;21141;-79
2021/09/23 10:22:53;;;;;;;8.07;3.33;;;19.00;90.90;;;;;;5072927;28;20477;-81
2021/09/23 10:25:22;;;;;;;4.73;3.50;;;19.10;90.00;;;;;;5073710;28;20844;-80
2021/09/23 10:27:58;;;;;;;4.87;3.23;;;19.30;90.00;;;;;;5074810;28;20801;-85
2021/09/23 10:30:38;;;;;;;4.00;2.83;;;19.50;90.40;;;;;;5074010;28;20487;-79
2021/09/23 10:33:06;;;;;;;6.40;3.50;;;19.70;89.50;;;;;;5073495;28;20460;-80
2021/09/23 10:35:32;;;;;;;7.83;3.20;;;19.80;88.00;;;;;;5074747;28;21005;-79
2021/09/23 10:38:02;;;;;;;4.23;3.20;;;20.00;89.00;;;;;;5073053;28;20474;-79
2021/09/23 10:40:29;;;;;;;5.47;3.13;;;20.10;87.60;;;;;;5074616;28;20425;-80
2021/09/23 10:43:01;;;;;;;7.53;2.83;;;20.20;87.60;;;;;;5074020;28;20509;-80
2021/09/23 10:45:27;;;;;;;8.43;3.83;;;20.40;87.70;;;;;;5071987;28;20473;-79
2021/09/23 10:47:55;;;;;;;7.50;2.90;;;20.50;87.50;;;;;;5072994;28;20432;-80
2021/09/23 10:50:32;;;;;;;3.50;2.77;;;20.70;87.00;;;;;;5054398;28;20450;-84
2021/09/23 10:52:59;;;;;;;4.10;2.33;;;20.90;86.20;;;;;;5052820;28;20487;-80
2021/09/23 10:55:27;;;;;;;4.20;2.90;;;21.10;85.60;;;;;;5053029;28;20422;-79
2021/09/23 10:57:53;;;;;;;5.83;3.27;;;21.10;83.50;;;;;;5054432;28;20414;-82
2021/09/23 11:00:24;;;;;;;5.63;2.83;;;21.00;83.20;;;;;;5053137;28;20429;-80
2021/09/23 11:02:51;;;;;;;6.70;3.00;;;21.00;84.20;;;;;;5053070;28;20449;-78
2021/09/23 11:05:19;;;;;;;5.03;2.70;;;21.10;82.90;;;;;;5054096;28;20414;-78
2021/09/23 11:07:47;;;;;;;8.37;2.90;;;21.20;83.00;;;;;;5051963;28;20459;-85
2021/09/23 11:10:19;;;;;;;5.33;3.30;;;21.30;82.80;;;;;;5052886;28;20454;-81
2021/09/23 11:12:48;;;;;;;6.90;3.47;;;21.30;83.40;;;;;;5053192;28;20449;-79
2021/09/23 11:15:16;;;;;;;7.50;2.90;;;21.30;83.30;;;;;;5052908;28;20467;-79
2021/09/23 11:17:43;;;;;;;6.43;2.80;;;21.40;82.80;;;;;;5053103;28;20916;-80
2021/09/23 11:20:18;;;;;;;7.33;2.80;;;21.50;84.10;;;;;;5053513;28;20418;-83
2021/09/23 11:23:00;;;;;;;6.27;3.00;;;21.70;83.60;;;;;;5054124;28;20441;-79
2021/09/23 11:25:31;;;;;;;5.23;3.00;;;21.70;83.10;;;;;;5052853;28;20418;-84
2021/09/23 11:27:58;;;;;;;6.20;2.73;;;21.80;82.30;;;;;;5053606;28;20413;-83
2021/09/23 11:30:27;;;;;;;4.40;2.43;;;21.80;81.70;;;;;;5053333;28;20462;-82
2021/09/23 11:33:04;;;;;;;6.27;3.27;;;21.90;82.40;;;;;;5052945;28;20434;-80
2021/09/23 11:35:33;;;;;;;4.20;2.83;;;22.00;82.30;;;;;;5051286;28;20495;-86
2021/09/23 11:37:59;;;;;;;4.47;2.47;;;22.00;81.90;;;;;;5052894;28;20415;-81
2021/09/23 11:40:29;;;;;;;4.50;2.40;;;22.10;82.00;;;;;;5051942;28;20924;-81
2021/09/23 11:42:55;;;;;;;6.03;2.50;;;22.20;81.50;;;;;;5052901;28;20473;-81
2021/09/23 11:45:23;;;;;;;6.43;2.47;;;22.30;81.60;;;;;;5051633;28;20539;-83
2021/09/23 11:47:56;;;;;;;4.60;2.27;;;22.40;80.40;;;;;;5052035;28;20971;-80
2021/09/23 11:50:32;;;;;;;6.60;2.63;;;22.50;80.00;;;;;;5051713;28;20508;-81
2021/09/23 11:53:08;;;;;;;6.63;2.63;;;22.60;80.20;;;;;;5051107;28;20448;-83
2021/09/23 11:55:35;;;;;;;6.53;2.30;;;22.80;80.10;;;;;;5052135;28;21015;-83
2021/09/23 11:58:06;;;;;;;2.70;2.30;;;22.90;78.40;;;;;;5051517;28;20430;-82
2021/09/23 12:00:35;;;;;;;2.70;2.30;;;22.90;76.70;;;;;;5051149;28;20417;-84
2021/09/23 12:03:01;;;;;;;11.70;2.80;;;22.80;77.10;;;;;;5052021;28;20512;-82
2021/09/23 12:05:29;;;;;;;5.00;2.63;;;22.80;76.80;;;;;;5051730;28;20785;-80
2021/09/23 12:07:55;;;;;;;7.93;2.50;;;22.80;76.70;;;;;;5053327;28;20414;-86
2021/09/23 12:10:21;;;;;;;4.27;2.87;;;22.90;76.80;;;;;;5051869;28;21055;-79
2021/09/23 12:12:58;;;;;;;5.83;2.70;;;22.90;77.30;;;;;;5053902;28;20198;-79
2021/09/23 12:15:26;;;;;;;8.00;2.83;;;23.10;77.90;;;;;;5071026;28;20923;-78
2021/09/23 12:17:54;;;;;;;2.90;2.30;;;23.20;77.50;;;;;;5071601;28;20492;-86
2021/09/23 12:20:20;;;;;;;4.50;3.20;;;23.30;76.90;;;;;;5071385;28;20920;-84
2021/09/23 12:22:46;;;;;;;13.60;2.40;;;23.30;76.30;;;;;;5072067;28;20708;-79
2021/09/23 12:25:16;;;;;;;7.53;3.20;;;23.40;76.70;;;;;;5071680;28;20465;-79
2021/09/23 12:27:43;;;;;;;3.40;2.40;;;23.60;76.60;;;;;;5071618;28;20187;-85
2021/09/23 12:30:09;;;;;;;6.00;2.63;;;23.70;75.30;;;;;;5072364;28;20461;-85
2021/09/23 12:32:37;;;;;;;6.87;2.53;;;23.70;75.50;;;;;;5072092;28;20486;-82
2021/09/23 12:35:19;;;;;;;4.53;2.90;;;23.50;75.40;;;;;;5070422;28;20494;-83
2021/09/23 12:37:47;;;;;;;6.73;2.93;;;23.30;75.30;;;;;;5052902;28;20431;-80